Time;durP1;ratioP1;P1;durP2;ratioP2;P2;SDS_P1;SDS_P2;PMS_P1;PMS_P2;Temp;Humidity;BMP_temperature;BMP_pressure;BME280_temperature;BME280_humidity;BME280_pressure;Samples;Min_cycle;Max_cycle;Signal;HPM_P1;HPM_P2
2023/01/22 00:00:49;;;;;;;;;;;;;;;;;;5054432;28;19914;-80
2023/01/22 00:03:14;;;;;;;;;;;;;;;;;;5025289;28;19910;-79
2023/01/22 00:05:39;;;;;;;;;;;;;;;;;;5054066;28;20376;-80
2023/01/22 00:08:05;;;;;;;;;;;;;;;;;;5051573;28;20299;-80
2023/01/22 00:10:31;;;;;;;;;;;;;;;;;;5055012;28;20123;-79
2023/01/22 00:12:56;;;;;;;;;;;;;;;;;;5054643;28;19937;-79
2023/01/22 00:15:21;;;;;;;;;;;;;;;;;;5054545;28;19918;-79
2023/01/22 00:17:46;;;;;;;;;;;;;;;;;;5055421;28;20421;-79
2023/01/22 00:20:12;;;;;;;;;;;;;;;;;;4988428;28;19914;-79
2023/01/22 00:22:37;;;;;;;;;;;;;;;;;;4987887;28;19914;-78
2023/01/22 00:25:04;;;;;;;;;;;;;;;;;;5052663;28;20008;-78
2023/01/22 00:27:29;;;;;;;;;;;;;;;;;;5054417;28;19996;-79
2023/01/22 00:29:54;;;;;;;;;;;;;;;;;;5055241;28;20055;-80
2023/01/22 00:32:19;;;;;;;;;;;;;;;;;;4988817;28;19914;-80
2023/01/22 00:34:51;;;;;;;;;;;;;;;;;;5029196;28;19920;-80
2023/01/22 00:37:16;;;;;;;;;;;;;;;;;;5073062;28;20018;-80
2023/01/22 00:39:41;;;;;;;;;;;;;;;;;;5075975;28;20010;-80
2023/01/22 00:42:06;;;;;;;;;;;;;;;;;;5088866;28;19916;-80
2023/01/22 00:44:31;;;;;;;;;;;;;;;;;;5088610;28;19926;-80
2023/01/22 00:46:56;;;;;;;;;;;;;;;;;;5089051;28;19908;-80
2023/01/22 00:49:21;;;;;;;;;;;;;;;;;;5070344;28;19959;-79
2023/01/22 00:51:46;;;;;;;;;;;;;;;;;;5070203;28;19912;-79
2023/01/22 00:54:12;;;;;;;;;;;;;;;;;;5089476;28;19942;-79
2023/01/22 00:56:37;;;;;;;;;;;;;;;;;;5089312;28;19916;-79
2023/01/22 00:59:08;;;;;;;;;;;;;;;;;;5088845;28;20030;-79
2023/01/22 01:01:34;;;;;;;;;;;;;;;;;;5071790;28;20203;-79
2023/01/22 01:03:59;;;;;;;;;;;;;;;;;;5085762;28;19924;-80
2023/01/22 01:06:24;;;;;;;;;;;;;;;;;;5088019;28;19919;-80
2023/01/22 01:08:49;;;;;;;;;;;;;;;;;;5074448;28;20003;-80
2023/01/22 01:11:14;;;;;;;;;;;;;;;;;;5075764;28;20062;-79
2023/01/22 01:13:41;;;;;;;;;;;;;;;;;;5076268;28;19916;-80
2023/01/22 01:16:06;;;;;;;;;;;;;;;;;;5093711;28;19912;-80
2023/01/22 01:18:31;;;;;;;;;;;;;;;;;;5069287;28;20381;-80
2023/01/22 01:20:57;;;;;;;;;;;;;;;;;;5083230;28;19991;-80
2023/01/22 01:23:22;;;;;;;;;;;;;;;;;;5075508;28;20050;-80
2023/01/22 01:25:47;;;;;;;;;;;;;;;;;;5074835;28;19920;-80
2023/01/22 01:28:12;;;;;;;;;;;;;;;;;;5075570;28;19974;-80
2023/01/22 01:30:37;;;;;;;;;;;;;;;;;;5074756;28;19912;-79
2023/01/22 01:33:02;;;;;;;;;;;;;;;;;;5091758;28;19971;-79
2023/01/22 01:35:27;;;;;;;;;;;;;;;;;;5074740;28;19920;-80
2023/01/22 01:37:53;;;;;;;;;;;;;;;;;;5076365;28;20050;-80
2023/01/22 01:40:18;;;;;;;;;;;;;;;;;;5071481;28;19927;-80
2023/01/22 01:42:43;;;;;;;;;;;;;;;;;;5075361;28;19958;-79
2023/01/22 01:45:08;;;;;;;;;;;;;;;;;;5093019;28;19919;-79
2023/01/22 01:47:33;;;;;;;;;;;;;;;;;;5076464;28;19912;-79
2023/01/22 01:49:58;;;;;;;;;;;;;;;;;;5093288;28;19912;-80
2023/01/22 01:52:23;;;;;;;;;;;;;;;;;;5074693;28;20382;-79
2023/01/22 01:54:49;;;;;;;;;;;;;;;;;;5089927;28;20015;-80
2023/01/22 01:57:14;;;;;;;;;;;;;;;;;;5092877;28;19908;-79
2023/01/22 01:59:39;;;;;;;;;;;;;;;;;;5090685;28;19912;-79
2023/01/22 02:02:04;;;;;;;;;;;;;;;;;;5090781;28;20378;-79
2023/01/22 02:04:29;;;;;;;;;;;;;;;;;;5084249;28;19946;-79
2023/01/22 02:06:54;;;;;;;;;;;;;;;;;;5091318;28;19912;-78
2023/01/22 02:09:19;;;;;;;;;;;;;;;;;;5074732;28;19969;-79
2023/01/22 02:11:44;;;;;;;;;;;;;;;;;;5087781;28;19920;-80
2023/01/22 02:14:10;;;;;;;;;;;;;;;;;;5075327;28;19912;-80
2023/01/22 02:16:35;;;;;;;;;;;;;;;;;;5070708;28;20278;-79
2023/01/22 02:19:00;;;;;;;;;;;;;;;;;;5084295;28;20059;-80
2023/01/22 02:21:25;;;;;;;;;;;;;;;;;;5073237;28;19912;-79
2023/01/22 02:23:50;;;;;;;;;;;;;;;;;;5073064;28;20418;-80
2023/01/22 02:26:15;;;;;;;;;;;;;;;;;;5091974;28;20362;-80
2023/01/22 02:28:40;;;;;;;;;;;;;;;;;;5091788;28;20009;-80
2023/01/22 02:31:05;;;;;;;;;;;;;;;;;;5090296;28;20058;-79
2023/01/22 02:33:31;;;;;;;;;;;;;;;;;;5084026;28;19993;-79
2023/01/22 02:35:56;;;;;;;;;;;;;;;;;;5074068;28;19927;-80
2023/01/22 02:38:21;;;;;;;;;;;;;;;;;;5072929;28;19916;-80
2023/01/22 02:40:47;;;;;;;;;;;;;;;;;;5089265;28;19912;-80
2023/01/22 02:43:13;;;;;;;;;;;;;;;;;;5074905;28;19951;-79
2023/01/22 02:45:38;;;;;;;;;;;;;;;;;;5074893;28;19969;-79
2023/01/22 02:48:03;;;;;;;;;;;;;;;;;;5073623;28;20619;-79
2023/01/22 02:50:28;;;;;;;;;;;;;;;;;;5088619;28;19912;-79
2023/01/22 02:52:53;;;;;;;;;;;;;;;;;;5090277;28;19916;-79
2023/01/22 02:55:18;;;;;;;;;;;;;;;;;;5074134;28;19919;-79
2023/01/22 02:57:43;;;;;;;;;;;;;;;;;;5091280;28;20362;-79
2023/01/22 03:00:08;;;;;;;;;;;;;;;;;;5071276;28;20928;-80
2023/01/22 03:02:34;;;;;;;;;;;;;;;;;;5091170;28;19938;-80
2023/01/22 03:05:03;;;;;;;;;;;;;;;;;;5073575;28;19912;-80
2023/01/22 03:07:40;;;;;;;;;;;;;;;;;;5089266;28;20010;-79
2023/01/22 03:10:05;;;;;;;;;;;;;;;;;;5073108;28;19927;-79
2023/01/22 03:23:26;;;;;;;;;;;;;;;;;;5083312;28;20281;-79
2023/01/22 03:25:51;;;;;;;;;;;;;;;;;;5090713;28;19912;-79
2023/01/22 03:28:18;;;;;;;;;;;;;;;;;;5072783;28;19920;-79
2023/01/22 03:30:43;;;;;;;;;;;;;;;;;;5071338;28;20212;-79
2023/01/22 03:33:08;;;;;;;;;;;;;;;;;;5072238;28;19999;-79
2023/01/22 03:35:33;;;;;;;;;;;;;;;;;;5072182;28;19924;-79
2023/01/22 03:37:58;;;;;;;;;;;;;;;;;;5091002;28;19938;-80
2023/01/22 03:40:23;;;;;;;;;;;;;;;;;;5090885;28;20010;-80
2023/01/22 03:42:48;;;;;;;;;;;;;;;;;;5089940;28;19998;-79
2023/01/22 03:45:14;;;;;;;;;;;;;;;;;;5063357;28;19962;-79
2023/01/22 03:47:39;;;;;;;;;;;;;;;;;;5091036;28;20106;-79
2023/01/22 03:50:04;;;;;;;;;;;;;;;;;;5089946;28;20006;-79
2023/01/22 03:52:29;;;;;;;;;;;;;;;;;;5072885;28;19912;-79
2023/01/22 03:54:54;;;;;;;;;;;;;;;;;;5072401;28;19912;-79
2023/01/22 03:57:19;;;;;;;;;;;;;;;;;;5089929;28;19912;-79
2023/01/22 03:59:44;;;;;;;;;;;;;;;;;;5091222;28;19912;-79
2023/01/22 04:02:09;;;;;;;;;;;;;;;;;;5090106;28;20015;-79
2023/01/22 04:04:35;;;;;;;;;;;;;;;;;;5071755;28;19916;-78
2023/01/22 04:07:00;;;;;;;;;;;;;;;;;;5091547;28;19931;-79
2023/01/22 04:09:25;;;;;;;;;;;;;;;;;;5090079;28;20019;-79
2023/01/22 04:11:50;;;;;;;;;;;;;;;;;;5090488;28;20330;-79
2023/01/22 04:14:15;;;;;;;;;;;;;;;;;;5071872;28;20142;-79
2023/01/22 04:16:40;;;;;;;;;;;;;;;;;;5072746;28;19922;-79
2023/01/22 04:19:05;;;;;;;;;;;;;;;;;;5090573;28;19951;-79
2023/01/22 04:21:30;;;;;;;;;;;;;;;;;;5078985;28;19912;-79
2023/01/22 04:23:56;;;;;;;;;;;;;;;;;;5069879;28;20283;-80
2023/01/22 04:26:21;;;;;;;;;;;;;;;;;;5073385;28;19922;-80
2023/01/22 04:28:46;;;;;;;;;;;;;;;;;;5090272;28;19966;-80
2023/01/22 04:31:11;;;;;;;;;;;;;;;;;;5072580;28;19965;-79
2023/01/22 04:33:36;;;;;;;;;;;;;;;;;;5074027;28;19916;-79
2023/01/22 04:36:01;;;;;;;;;;;;;;;;;;5076731;28;19919;-80
2023/01/22 04:38:26;;;;;;;;;;;;;;;;;;5081286;28;19958;-81
2023/01/22 04:40:51;;;;;;;;;;;;;;;;;;5094207;28;19919;-81
2023/01/22 04:43:17;;;;;;;;;;;;;;;;;;5084354;28;19954;-80
2023/01/22 04:45:42;;;;;;;;;;;;;;;;;;5074422;28;19912;-80
2023/01/22 04:48:08;;;;;;;;;;;;;;;;;;5075966;28;19916;-80
2023/01/22 04:50:33;;;;;;;;;;;;;;;;;;5074890;28;19959;-81
2023/01/22 04:52:58;;;;;;;;;;;;;;;;;;5067457;28;20382;-81
2023/01/22 04:55:24;;;;;;;;;;;;;;;;;;5090604;28;19943;-81
2023/01/22 04:57:49;;;;;;;;;;;;;;;;;;5071877;28;19912;-79
2023/01/22 05:00:14;;;;;;;;;;;;;;;;;;5073740;28;19912;-79
2023/01/22 05:02:39;;;;;;;;;;;;;;;;;;5073168;28;20038;-79
2023/01/22 05:05:04;;;;;;;;;;;;;;;;;;5076434;28;19916;-80
2023/01/22 05:07:29;;;;;;;;;;;;;;;;;;5089580;28;19912;-80
2023/01/22 05:09:54;;;;;;;;;;;;;;;;;;5080690;28;19955;-80
2023/01/22 05:12:20;;;;;;;;;;;;;;;;;;5066466;28;20336;-79
2023/01/22 05:14:45;;;;;;;;;;;;;;;;;;5075563;28;19991;-81
2023/01/22 05:17:10;;;;;;;;;;;;;;;;;;5090678;28;19922;-79
2023/01/22 05:19:36;;;;;;;;;;;;;;;;;;5076356;28;19959;-80
2023/01/22 05:22:01;;;;;;;;;;;;;;;;;;5090355;28;19991;-80
2023/01/22 05:24:26;;;;;;;;;;;;;;;;;;5087694;28;19927;-80
2023/01/22 05:26:51;;;;;;;;;;;;;;;;;;5084911;28;19939;-79
2023/01/22 05:29:17;;;;;;;;;;;;;;;;;;5065072;28;20396;-80
2023/01/22 05:31:42;;;;;;;;;;;;;;;;;;5064352;28;19912;-80
2023/01/22 05:34:07;;;;;;;;;;;;;;;;;;5090464;28;19922;-80
2023/01/22 05:36:32;;;;;;;;;;;;;;;;;;5070316;28;19912;-79
2023/01/22 05:38:57;;;;;;;;;;;;;;;;;;5075114;28;19912;-79
2023/01/22 05:41:22;;;;;;;;;;;;;;;;;;5073617;28;20365;-79
2023/01/22 05:43:48;;;;;;;;;;;;;;;;;;5075955;28;20054;-81
2023/01/22 05:46:13;;;;;;;;;;;;;;;;;;5082795;28;20171;-80
2023/01/22 05:48:38;;;;;;;;;;;;;;;;;;5075574;28;19923;-79
2023/01/22 05:51:03;;;;;;;;;;;;;;;;;;5075403;28;19923;-81
2023/01/22 05:53:28;;;;;;;;;;;;;;;;;;5076528;28;20001;-80
2023/01/22 05:55:53;;;;;;;;;;;;;;;;;;5070761;28;19912;-80
2023/01/22 05:58:18;;;;;;;;;;;;;;;;;;5090987;28;19912;-80
2023/01/22 06:00:44;;;;;;;;;;;;;;;;;;5092961;28;20354;-81
2023/01/22 06:03:09;;;;;;;;;;;;;;;;;;5075670;28;19918;-82
2023/01/22 06:05:34;;;;;;;;;;;;;;;;;;5092167;28;19920;-81
2023/01/22 06:07:59;;;;;;;;;;;;;;;;;;5092065;28;19923;-80
2023/01/22 06:10:24;;;;;;;;;;;;;;;;;;5091392;28;20007;-80
2023/01/22 06:12:49;;;;;;;;;;;;;;;;;;5072264;28;20273;-80
2023/01/22 06:15:14;;;;;;;;;;;;;;;;;;5074800;28;20002;-80
2023/01/22 06:17:40;;;;;;;;;;;;;;;;;;5092084;28;19916;-80
2023/01/22 06:20:05;;;;;;;;;;;;;;;;;;5091218;28;19947;-81
2023/01/22 06:22:30;;;;;;;;;;;;;;;;;;5075393;28;20140;-79
2023/01/22 06:24:55;;;;;;;;;;;;;;;;;;5066274;28;19913;-79
2023/01/22 06:27:20;;;;;;;;;;;;;;;;;;5073643;28;19972;-79
2023/01/22 06:29:45;;;;;;;;;;;;;;;;;;5072722;28;19924;-79
2023/01/22 06:32:10;;;;;;;;;;;;;;;;;;5072659;28;19916;-80
2023/01/22 06:34:35;;;;;;;;;;;;;;;;;;5068320;28;19932;-80
2023/01/22 06:37:01;;;;;;;;;;;;;;;;;;5066974;28;19920;-80
2023/01/22 06:39:26;;;;;;;;;;;;;;;;;;5070155;28;20388;-80
2023/01/22 06:41:51;;;;;;;;;;;;;;;;;;5072710;28;19919;-79
2023/01/22 06:44:17;;;;;;;;;;;;;;;;;;5083248;28;20344;-79
2023/01/22 06:46:42;;;;;;;;;;;;;;;;;;5092094;28;19919;-80
2023/01/22 06:49:08;;;;;;;;;;;;;;;;;;5071795;28;19916;-80
2023/01/22 06:51:33;;;;;;;;;;;;;;;;;;5091237;28;19912;-80
2023/01/22 06:53:58;;;;;;;;;;;;;;;;;;5090833;28;19912;-80
2023/01/22 06:56:23;;;;;;;;;;;;;;;;;;5072659;28;20191;-80
2023/01/22 06:58:48;;;;;;;;;;;;;;;;;;5081891;28;20006;-80
2023/01/22 07:01:13;;;;;;;;;;;;;;;;;;5072603;28;20003;-80
2023/01/22 07:03:38;;;;;;;;;;;;;;;;;;5090164;28;19916;-80
2023/01/22 07:06:04;;;;;;;;;;;;;;;;;;5089780;28;20332;-80
2023/01/22 07:08:29;;;;;;;;;;;;;;;;;;5088513;28;20559;-80
2023/01/22 07:10:54;;;;;;;;;;;;;;;;;;5089222;28;20259;-80
2023/01/22 07:13:19;;;;;;;;;;;;;;;;;;5078132;28;19916;-80
2023/01/22 07:15:44;;;;;;;;;;;;;;;;;;5073015;28;19934;-80
2023/01/22 07:18:09;;;;;;;;;;;;;;;;;;5072618;28;19916;-80
2023/01/22 07:20:35;;;;;;;;;;;;;;;;;;5090033;28;20440;-81
2023/01/22 07:23:00;;;;;;;;;;;;;;;;;;5079439;28;19919;-79
2023/01/22 07:25:25;;;;;;;;;;;;;;;;;;5090382;28;19938;-81
2023/01/22 07:27:51;;;;;;;;;;;;;;;;;;5079018;28;19916;-79
2023/01/22 07:30:16;;;;;;;;;;;;;;;;;;5090232;28;19965;-83
2023/01/22 07:32:41;;;;;;;;;;;;;;;;;;5089027;28;19951;-81
2023/01/22 07:35:06;;;;;;;;;;;;;;;;;;5070543;28;19927;-81
2023/01/22 07:37:31;;;;;;;;;;;;;;;;;;5068092;28;20297;-81
2023/01/22 07:39:56;;;;;;;;;;;;;;;;;;5089517;28;19912;-80
2023/01/22 07:42:21;;;;;;;;;;;;;;;;;;5072771;28;20355;-82
2023/01/22 07:44:46;;;;;;;;;;;;;;;;;;5071692;28;20351;-82
2023/01/22 07:47:12;;;;;;;;;;;;;;;;;;5086796;28;19916;-81
2023/01/22 07:49:37;;;;;;;;;;;;;;;;;;5070838;28;19931;-80
2023/01/22 07:52:02;;;;;;;;;;;;;;;;;;5089950;28;20377;-80
2023/01/22 07:54:27;;;;;;;;;;;;;;;;;;5069467;28;19912;-80
2023/01/22 07:56:52;;;;;;;;;;;;;;;;;;5090016;28;19916;-80
2023/01/22 07:59:17;;;;;;;;;;;;;;;;;;5072357;28;19916;-82
2023/01/22 08:01:42;;;;;;;;;;;;;;;;;;5078989;28;19920;-80
2023/01/22 08:04:07;;;;;;;;;;;;;;;;;;5072587;28;20367;-81
2023/01/22 08:06:33;;;;;;;;;;;;;;;;;;5069687;28;19976;-81
2023/01/22 08:08:58;;;;;;;;;;;;;;;;;;5072709;28;19962;-81
2023/01/22 08:11:23;;;;;;;;;;;;;;;;;;5076632;28;19912;-81
2023/01/22 08:13:48;;;;;;;;;;;;;;;;;;5092503;28;19912;-80
2023/01/22 08:16:13;;;;;;;;;;;;;;;;;;5075026;28;19917;-81
2023/01/22 08:18:39;;;;;;;;;;;;;;;;;;5076201;28;19919;-81
2023/01/22 08:21:04;;;;;;;;;;;;;;;;;;5092722;28;19913;-81
2023/01/22 08:23:29;;;;;;;;;;;;;;;;;;5086310;28;19916;-81
2023/01/22 08:25:54;;;;;;;;;;;;;;;;;;5075748;28;19977;-81
2023/01/22 08:28:19;;;;;;;;;;;;;;;;;;5076438;28;19924;-81
2023/01/22 08:30:44;;;;;;;;;;;;;;;;;;5084014;28;20022;-81
2023/01/22 08:33:10;;;;;;;;;;;;;;;;;;5075516;28;20302;-81
2023/01/22 08:35:35;;;;;;;;;;;;;;;;;;5075687;28;20356;-81
2023/01/22 08:38:00;;;;;;;;;;;;;;;;;;5068444;28;19962;-81
2023/01/22 08:40:25;;;;;;;;;;;;;;;;;;5073215;28;19934;-81
2023/01/22 08:42:50;;;;;;;;;;;;;;;;;;5094249;28;19996;-82
2023/01/22 08:45:15;;;;;;;;;;;;;;;;;;5084169;28;19912;-81
2023/01/22 08:47:40;;;;;;;;;;;;;;;;;;5076765;28;19912;-81
2023/01/22 08:50:06;;;;;;;;;;;;;;;;;;5074724;28;19966;-81
2023/01/22 08:52:31;;;;;;;;;;;;;;;;;;5074592;28;20382;-81
2023/01/22 08:54:56;;;;;;;;;;;;;;;;;;5080777;28;20354;-81
2023/01/22 08:57:21;;;;;;;;;;;;;;;;;;5093790;28;19953;-81
2023/01/22 08:59:46;;;;;;;;;;;;;;;;;;5087880;28;19912;-81
2023/01/22 09:02:12;;;;;;;;;;;;;;;;;;5069177;28;19960;-82
2023/01/22 09:04:37;;;;;;;;;;;;;;;;;;5091918;28;19919;-80
2023/01/22 09:07:02;;;;;;;;;;;;;;;;;;5091201;28;19913;-81
2023/01/22 09:09:27;;;;;;;;;;;;;;;;;;5079380;28;20023;-81
2023/01/22 09:11:52;;;;;;;;;;;;;;;;;;5075342;28;20368;-81
2023/01/22 09:14:17;;;;;;;;;;;;;;;;;;5093394;28;19954;-81
2023/01/22 09:16:43;;;;;;;;;;;;;;;;;;5093361;28;19924;-80
2023/01/22 09:19:08;;;;;;;;;;;;;;;;;;5093470;28;19953;-80
2023/01/22 09:21:36;;;;;;;;;;;;;;;;;;5075124;28;20316;-80
2023/01/22 09:24:01;;;;;;;;;;;;;;;;;;5076661;28;19931;-81
2023/01/22 09:26:26;;;;;;;;;;;;;;;;;;5078921;28;19912;-80
2023/01/22 09:28:51;;;;;;;;;;;;;;;;;;5073484;28;19923;-80
2023/01/22 09:31:16;;;;;;;;;;;;;;;;;;5073791;28;19958;-81
2023/01/22 09:33:41;;;;;;;;;;;;;;;;;;5075870;28;19919;-80
2023/01/22 09:36:06;;;;;;;;;;;;;;;;;;5076729;28;20015;-80
2023/01/22 09:38:31;;;;;;;;;;;;;;;;;;5090115;28;19912;-80
2023/01/22 09:40:57;;;;;;;;;;;;;;;;;;5074748;28;20015;-80
2023/01/22 09:43:22;;;;;;;;;;;;;;;;;;5074748;28;19913;-80
2023/01/22 09:45:47;;;;;;;;;;;;;;;;;;5074688;28;19913;-83
2023/01/22 09:48:12;;;;;;;;;;;;;;;;;;5077267;28;19912;-80
2023/01/22 09:50:38;;;;;;;;;;;;;;;;;;5073495;28;19912;-80
2023/01/22 09:53:03;;;;;;;;;;;;;;;;;;5087593;28;20375;-80
2023/01/22 09:55:29;;;;;;;;;;;;;;;;;;5075566;28;20270;-81
2023/01/22 09:57:54;;;;;;;;;;;;;;;;;;5091314;28;19916;-81
2023/01/22 10:00:19;;;;;;;;;;;;;;;;;;5090308;28;19913;-82
2023/01/22 10:02:44;;;;;;;;;;;;;;;;;;5074025;28;19952;-85
2023/01/22 10:05:09;;;;;;;;;;;;;;;;;;5074045;28;19927;-84
2023/01/22 10:07:34;;;;;;;;;;;;;;;;;;5072869;28;20003;-82
2023/01/22 10:10:00;;;;;;;;;;;;;;;;;;5091914;28;19920;-81
2023/01/22 10:12:25;;;;;;;;;;;;;;;;;;5090807;28;19912;-82
2023/01/22 10:14:50;;;;;;;;;;;;;;;;;;5076525;28;19965;-84
2023/01/22 10:17:15;;;;;;;;;;;;;;;;;;5079865;28;19915;-82
2023/01/22 10:19:40;;;;;;;;;;;;;;;;;;5075383;28;19922;-82
2023/01/22 10:22:05;;;;;;;;;;;;;;;;;;5079617;28;20263;-82
2023/01/22 10:24:31;;;;;;;;;;;;;;;;;;5070647;28;20007;-81
2023/01/22 10:26:57;;;;;;;;;;;;;;;;;;5074681;28;19912;-81
2023/01/22 10:29:23;;;;;;;;;;;;;;;;;;5073409;28;19924;-81
2023/01/22 10:31:48;;;;;;;;;;;;;;;;;;5070751;28;19913;-80
2023/01/22 10:34:13;;;;;;;;;;;;;;;;;;5070098;28;19920;-80
2023/01/22 10:36:38;;;;;;;;;;;;;;;;;;5102002;28;19911;-80
2023/01/22 10:39:03;;;;;;;;;;;;;;;;;;5081892;28;19978;-80
2023/01/22 10:41:29;;;;;;;;;;;;;;;;;;5074362;28;20270;-80
2023/01/22 10:43:54;;;;;;;;;;;;;;;;;;5091548;28;19912;-80
2023/01/22 10:46:19;;;;;;;;;;;;;;;;;;5077482;28;19912;-80
2023/01/22 10:48:45;;;;;;;;;;;;;;;;;;5073835;28;19916;-80
2023/01/22 10:51:10;;;;;;;;;;;;;;;;;;5081377;28;19916;-80
2023/01/22 10:53:35;;;;;;;;;;;;;;;;;;5088678;28;19926;-80
2023/01/22 10:56:00;;;;;;;;;;;;;;;;;;5080580;28;19919;-80
2023/01/22 10:58:25;;;;;;;;;;;;;;;;;;5073514;28;19912;-80
2023/01/22 11:00:51;;;;;;;;;;;;;;;;;;5089522;28;19912;-80
2023/01/22 11:03:16;;;;;;;;;;;;;;;;;;5072553;28;20011;-80
2023/01/22 11:05:41;;;;;;;;;;;;;;;;;;5076283;28;20002;-80
2023/01/22 11:08:07;;;;;;;;;;;;;;;;;;5066044;28;19940;-80
2023/01/22 11:10:32;;;;;;;;;;;;;;;;;;5073853;28;20019;-80
2023/01/22 11:12:57;;;;;;;;;;;;;;;;;;5089498;28;20358;-81
2023/01/22 11:15:22;;;;;;;;;;;;;;;;;;5065641;28;19912;-82
2023/01/22 11:17:48;;;;;;;;;;;;;;;;;;5081069;28;20346;-81
2023/01/22 11:20:13;;;;;;;;;;;;;;;;;;5091066;28;20427;-81
2023/01/22 11:22:38;;;;;;;;;;;;;;;;;;5064139;28;20378;-80
2023/01/22 11:25:03;;;;;;;;;;;;;;;;;;5089294;28;19920;-81
2023/01/22 11:27:28;;;;;;;;;;;;;;;;;;5085504;28;19965;-80
2023/01/22 11:29:53;;;;;;;;;;;;;;;;;;5069168;28;19927;-81
2023/01/22 11:32:19;;;;;;;;;;;;;;;;;;5089762;28;19913;-81
2023/01/22 11:34:44;;;;;;;;;;;;;;;;;;5090798;28;19924;-80
2023/01/22 11:37:09;;;;;;;;;;;;;;;;;;5091075;28;20286;-81
2023/01/22 11:39:34;;;;;;;;;;;;;;;;;;5072546;28;19916;-80
2023/01/22 11:41:59;;;;;;;;;;;;;;;;;;5073123;28;19912;-81
2023/01/22 11:44:24;;;;;;;;;;;;;;;;;;5091610;28;19912;-81
2023/01/22 11:46:49;;;;;;;;;;;;;;;;;;5071804;28;19973;-81
2023/01/22 11:49:15;;;;;;;;;;;;;;;;;;5082874;28;20293;-81
2023/01/22 11:51:40;;;;;;;;;;;;;;;;;;5072476;28;19927;-80
2023/01/22 11:54:05;;;;;;;;;;;;;;;;;;5078919;28;19919;-80
2023/01/22 11:56:30;;;;;;;;;;;;;;;;;;5072788;28;20071;-80
2023/01/22 11:58:55;;;;;;;;;;;;;;;;;;5073895;28;19958;-80
2023/01/22 12:01:20;;;;;;;;;;;;;;;;;;5088798;28;19965;-80
2023/01/22 12:03:45;;;;;;;;;;;;;;;;;;5091135;28;19971;-80
2023/01/22 12:06:11;;;;;;;;;;;;;;;;;;5070778;28;20290;-80
2023/01/22 12:08:37;;;;;;;;;;;;;;;;;;5090440;28;19916;-81
2023/01/22 12:11:02;;;;;;;;;;;;;;;;;;5088632;28;19934;-80
2023/01/22 12:13:27;;;;;;;;;;;;;;;;;;5090406;28;19916;-80
2023/01/22 12:15:52;;;;;;;;;;;;;;;;;;5072319;28;20301;-81
2023/01/22 12:18:17;;;;;;;;;;;;;;;;;;5077665;28;20003;-80
2023/01/22 12:20:42;;;;;;;;;;;;;;;;;;5070957;28;19920;-80
2023/01/22 12:23:08;;;;;;;;;;;;;;;;;;5071221;28;19922;-80
2023/01/22 12:25:33;;;;;;;;;;;;;;;;;;5089823;28;19934;-80
2023/01/22 12:27:58;;;;;;;;;;;;;;;;;;5085623;28;19920;-83
2023/01/22 12:30:24;;;;;;;;;;;;;;;;;;5080645;28;19924;-80
2023/01/22 12:32:49;;;;;;;;;;;;;;;;;;5090030;28;19919;-82
2023/01/22 12:35:14;;;;;;;;;;;;;;;;;;5042608;28;19988;-82
2023/01/22 12:37:39;;;;;;;;;;;;;;;;;;4964227;28;20005;-79
2023/01/22 12:40:04;;;;;;;;;;;;;;;;;;4965580;28;19929;-81
2023/01/22 12:42:31;;;;;;;;;;;;;;;;;;4963220;28;19910;-80
2023/01/22 12:44:56;;;;;;;;;;;;;;;;;;4967543;28;19947;-81
2023/01/22 12:47:21;;;;;;;;;;;;;;;;;;5032920;28;20365;-81
2023/01/22 12:49:47;;;;;;;;;;;;;;;;;;5025370;28;20360;-81
2023/01/22 12:52:12;;;;;;;;;;;;;;;;;;5029508;28;19927;-81
2023/01/22 12:54:37;;;;;;;;;;;;;;;;;;5019241;28;20380;-81
2023/01/22 12:57:02;;;;;;;;;;;;;;;;;;4962016;28;19922;-81
2023/01/22 12:59:30;;;;;;;;;;;;;;;;;;5028726;28;19941;-81
2023/01/22 13:01:55;;;;;;;;;;;;;;;;;;4968369;28;19921;-81
2023/01/22 13:04:20;;;;;;;;;;;;;;;;;;4968356;28;19914;-81
2023/01/22 13:06:46;;;;;;;;;;;;;;;;;;5031500;28;19919;-81
2023/01/22 13:09:11;;;;;;;;;;;;;;;;;;4962740;28;19918;-81
2023/01/22 13:11:36;;;;;;;;;;;;;;;;;;5028001;28;19921;-81
2023/01/22 13:14:02;;;;;;;;;;;;;;;;;;4971904;28;19985;-81
2023/01/22 13:16:27;;;;;;;;;;;;;;;;;;5034733;28;19922;-80
2023/01/22 13:18:52;;;;;;;;;;;;;;;;;;4967516;28;20340;-80
2023/01/22 13:21:17;;;;;;;;;;;;;;;;;;5036133;28;19969;-80
2023/01/22 13:23:42;;;;;;;;;;;;;;;;;;4968165;28;19914;-81
2023/01/22 13:26:07;;;;;;;;;;;;;;;;;;5025885;28;19964;-80
2023/01/22 13:28:32;;;;;;;;;;;;;;;;;;5031778;28;20443;-80
2023/01/22 13:30:58;;;;;;;;;;;;;;;;;;5037191;28;19960;-82
2023/01/22 13:33:23;;;;;;;;;;;;;;;;;;5032286;28;20267;-81
2023/01/22 13:35:48;;;;;;;;;;;;;;;;;;5048043;28;19945;-82
2023/01/22 13:38:13;;;;;;;;;;;;;;;;;;5042472;28;19941;-82
2023/01/22 13:40:38;;;;;;;;;;;;;;;;;;5030361;28;19915;-81
2023/01/22 13:43:03;;;;;;;;;;;;;;;;;;4960782;28;20269;-81
2023/01/22 13:45:28;;;;;;;;;;;;;;;;;;5035215;28;19921;-81
2023/01/22 13:47:54;;;;;;;;;;;;;;;;;;5034693;28;19915;-80
2023/01/22 13:50:19;;;;;;;;;;;;;;;;;;5028566;28;19918;-81
2023/01/22 13:52:44;;;;;;;;;;;;;;;;;;5034769;28;20295;-81
2023/01/22 13:55:09;;;;;;;;;;;;;;;;;;5036509;28;20001;-81
2023/01/22 13:57:34;;;;;;;;;;;;;;;;;;4967493;28;19959;-80
2023/01/22 14:00:00;;;;;;;;;;;;;;;;;;5035945;28;19922;-80
2023/01/22 14:02:25;;;;;;;;;;;;;;;;;;4969177;28;19914;-80
2023/01/22 14:04:50;;;;;;;;;;;;;;;;;;5025340;28;19914;-80
2023/01/22 14:07:16;;;;;;;;;;;;;;;;;;5035977;28;19914;-80
2023/01/22 14:09:41;;;;;;;;;;;;;;;;;;4959822;28;20329;-81
2023/01/22 14:12:07;;;;;;;;;;;;;;;;;;4967044;28;19919;-82
2023/01/22 14:14:32;;;;;;;;;;;;;;;;;;5046895;28;19937;-82
2023/01/22 14:16:57;;;;;;;;;;;;;;;;;;4960585;28;19941;-82
2023/01/22 14:19:22;;;;;;;;;;;;;;;;;;5039081;28;20418;-83
2023/01/22 14:21:47;;;;;;;;;;;;;;;;;;4962887;28;19914;-80
2023/01/22 14:24:12;;;;;;;;;;;;;;;;;;5051571;28;19999;-80
2023/01/22 14:26:37;;;;;;;;;;;;;;;;;;5055347;28;19948;-80
2023/01/22 14:29:02;;;;;;;;;;;;;;;;;;5038443;28;19918;-80
2023/01/22 14:31:28;;;;;;;;;;;;;;;;;;4971490;28;19933;-80
2023/01/22 14:33:53;;;;;;;;;;;;;;;;;;5042833;28;19921;-83
2023/01/22 14:36:19;;;;;;;;;;;;;;;;;;5073959;28;19920;-81
2023/01/22 14:38:44;;;;;;;;;;;;;;;;;;5074509;28;19912;-83
2023/01/22 14:41:09;;;;;;;;;;;;;;;;;;5074822;28;20278;-83
2023/01/22 14:43:34;;;;;;;;;;;;;;;;;;5075131;28;20271;-83
2023/01/22 14:45:59;;;;;;;;;;;;;;;;;;5074803;28;19948;-80
2023/01/22 14:48:24;;;;;;;;;;;;;;;;;;5073413;28;19916;-81
2023/01/22 14:50:50;;;;;;;;;;;;;;;;;;5068616;28;19995;-81
2023/01/22 14:53:15;;;;;;;;;;;;;;;;;;5054935;28;19916;-81
2023/01/22 14:55:41;;;;;;;;;;;;;;;;;;5073515;28;20517;-80
2023/01/22 14:58:06;;;;;;;;;;;;;;;;;;5070387;28;19908;-81
2023/01/22 15:00:31;;;;;;;;;;;;;;;;;;5054772;28;19957;-80
2023/01/22 15:02:56;;;;;;;;;;;;;;;;;;5062169;28;19922;-80
2023/01/22 15:05:22;;;;;;;;;;;;;;;;;;5074769;28;20387;-80
2023/01/22 15:07:47;;;;;;;;;;;;;;;;;;5073712;28;20361;-80
2023/01/22 15:10:19;;;;;;;;;;;;;;;;;;5069198;28;19958;-80
2023/01/22 15:13:00;;;;;;;;;;;;;;;;;;5074917;28;19912;-79
2023/01/22 15:23:38;;;;;;;;;;;;;;;;;;5084203;28;19908;-80
2023/01/22 15:26:04;;;;;;;;;;;;;;;;;;5079814;28;19939;-80
2023/01/22 15:28:29;;;;;;;;;;;;;;;;;;5092793;28;19920;-80
2023/01/22 15:30:55;;;;;;;;;;;;;;;;;;5077672;28;20283;-80
2023/01/22 15:33:21;;;;;;;;;;;;;;;;;;5092028;28;19972;-81
2023/01/22 15:35:46;;;;;;;;;;;;;;;;;;5073715;28;19921;-79
2023/01/22 15:38:11;;;;;;;;;;;;;;;;;;5073025;28;19939;-80
2023/01/22 15:40:36;;;;;;;;;;;;;;;;;;5080061;28;20286;-80
2023/01/22 15:43:01;;;;;;;;;;;;;;;;;;5074265;28;19908;-80
2023/01/22 15:45:27;;;;;;;;;;;;;;;;;;5092455;28;20282;-81
2023/01/22 15:47:52;;;;;;;;;;;;;;;;;;5075752;28;20365;-81
2023/01/22 15:50:20;;;;;;;;;;;;;;;;;;5069395;28;19917;-80
2023/01/22 15:52:45;;;;;;;;;;;;;;;;;;5089668;28;20019;-80
2023/01/22 15:55:10;;;;;;;;;;;;;;;;;;5074288;28;19991;-81
2023/01/22 15:57:35;;;;;;;;;;;;;;;;;;5087685;28;19924;-81
2023/01/22 16:00:00;;;;;;;;;;;;;;;;;;5068580;28;19916;-80
2023/01/22 16:02:25;;;;;;;;;;;;;;;;;;5070133;28;19958;-81
2023/01/22 16:04:50;;;;;;;;;;;;;;;;;;5065958;28;19912;-81
2023/01/22 16:07:16;;;;;;;;;;;;;;;;;;5088547;28;19912;-81
2023/01/22 16:09:41;;;;;;;;;;;;;;;;;;5090500;28;19916;-82
2023/01/22 16:12:06;;;;;;;;;;;;;;;;;;5071175;28;19927;-81
2023/01/22 16:14:31;;;;;;;;;;;;;;;;;;5090921;28;20429;-81
2023/01/22 16:16:56;;;;;;;;;;;;;;;;;;5069397;28;20370;-80
2023/01/22 16:19:21;;;;;;;;;;;;;;;;;;5065967;28;20312;-81
2023/01/22 16:21:47;;;;;;;;;;;;;;;;;;5078687;28;20389;-81
2023/01/22 16:24:12;;;;;;;;;;;;;;;;;;5070724;28;19948;-80
2023/01/22 16:26:37;;;;;;;;;;;;;;;;;;5071586;28;19939;-80
2023/01/22 16:29:02;;;;;;;;;;;;;;;;;;5072200;28;19923;-81
2023/01/22 16:31:27;;;;;;;;;;;;;;;;;;5089301;28;19919;-80
2023/01/22 16:33:52;;;;;;;;;;;;;;;;;;5088392;28;19947;-81
2023/01/22 16:36:18;;;;;;;;;;;;;;;;;;5093024;28;19916;-80
2023/01/22 16:38:43;;;;;;;;;;;;;;;;;;5075655;28;20021;-81
2023/01/22 16:41:08;;;;;;;;;;;;;;;;;;5094220;28;19959;-80
2023/01/22 16:43:33;;;;;;;;;;;;;;;;;;5081384;28;20425;-81
2023/01/22 16:45:58;;;;;;;;;;;;;;;;;;5064755;28;19920;-81
2023/01/22 16:48:23;;;;;;;;;;;;;;;;;;5072972;28;19923;-82
2023/01/22 16:50:48;;;;;;;;;;;;;;;;;;5093031;28;19912;-83